Etusivu
METAR-TAF:

METAR-TAF

Lentoasemat :

Chichén Itzá, Meksiko

Leveyspiiri: 20-38-30N, Pituuspiiri: 088-26-58W, korkeus merenpinnasta: 31 m

Tämänhetkinen sää

Tämä raportti tehtiin 47 minuuttia sitten, kello 13.50 UTC
Tuuli 6 kn idästä
Lämpötila 23°C
Kosteus 89%
Ilmanpaine 1017 hPa
Näkyvyys: 4.8 km
Hajanaisia pilviä 600 ft:n korkeudessa
utua

METAR: MMCT 201350Z 09006KT 3SM BR SCT006 23/21 A3004 RMK 8/600

Aika: 08:37 (14:37 UTC)


TAF: puuttuu

Säähavainnot ja -ennusteet yli 4000 lentoasemalta (METAR- ja TAF-raportit).

Käytössä olevat sääasemat on merkitty karttaan keltaisilla ja punaisilla pisteillä.

Aseta hiiri pisteen päälle nähdäksesi sääaseman nimen.

Klikkaa sitten nähdäksesi säähavainnot ja -ennusteet.

Kartan vaihtaminen: klikkaa mustalla rastilla varustettuja vihreitä pisteitä, niin voit zoomata sisään; viivalla varustettua vihreää pistettä, niin voit zoomata ulos tai vihreitä nuolia, niin pääset viereisille kartoille.


METAR-TAF: